sensor_id;sensor_type;location;lat;lon;timestamp;temperature;humidity
5210;DHT22;2624;48.048;11.706;2023-06-14T00:04:34;17.20;79.00
5210;DHT22;2624;48.048;11.706;2023-06-14T00:09:36;16.90;78.70
5210;DHT22;2624;48.048;11.706;2023-06-14T00:14:39;17.00;78.60
5210;DHT22;2624;48.048;11.706;2023-06-14T00:19:41;17.10;80.30
5210;DHT22;2624;48.048;11.706;2023-06-14T00:24:43;17.00;80.40
5210;DHT22;2624;48.048;11.706;2023-06-14T00:29:46;17.20;80.20
5210;DHT22;2624;48.048;11.706;2023-06-14T00:34:48;16.80;78.40
5210;DHT22;2624;48.048;11.706;2023-06-14T00:39:49;15.90;79.90
5210;DHT22;2624;48.048;11.706;2023-06-14T00:44:53;15.40;81.50
5210;DHT22;2624;48.048;11.706;2023-06-14T00:49:55;16.40;80.40
5210;DHT22;2624;48.048;11.706;2023-06-14T00:54:57;16.50;79.80
5210;DHT22;2624;48.048;11.706;2023-06-14T01:00:00;16.70;80.20
5210;DHT22;2624;48.048;11.706;2023-06-14T01:05:03;16.50;81.10
5210;DHT22;2624;48.048;11.706;2023-06-14T01:10:24;16.70;80.70
5210;DHT22;2624;48.048;11.706;2023-06-14T01:15:30;16.40;80.40
5210;DHT22;2624;48.048;11.706;2023-06-14T01:20:33;16.90;80.40
5210;DHT22;2624;48.048;11.706;2023-06-14T01:25:38;17.00;79.90
5210;DHT22;2624;48.048;11.706;2023-06-14T01:30:43;17.10;79.60
5210;DHT22;2624;48.048;11.706;2023-06-14T01:35:48;17.00;79.80
5210;DHT22;2624;48.048;11.706;2023-06-14T01:40:53;16.20;78.70
5210;DHT22;2624;48.048;11.706;2023-06-14T01:45:55;14.40;83.60
5210;DHT22;2624;48.048;11.706;2023-06-14T01:50:59;14.10;87.20
5210;DHT22;2624;48.048;11.706;2023-06-14T01:56:02;14.80;83.40
5210;DHT22;2624;48.048;11.706;2023-06-14T02:01:04;14.60;85.40
5210;DHT22;2624;48.048;11.706;2023-06-14T02:06:07;14.90;83.50
5210;DHT22;2624;48.048;11.706;2023-06-14T02:11:10;14.80;82.50
5210;DHT22;2624;48.048;11.706;2023-06-14T02:16:12;14.20;84.50
5210;DHT22;2624;48.048;11.706;2023-06-14T02:21:15;14.30;85.00
5210;DHT22;2624;48.048;11.706;2023-06-14T02:26:18;14.50;82.90
5210;DHT22;2624;48.048;11.706;2023-06-14T02:31:19;14.40;83.20
5210;DHT22;2624;48.048;11.706;2023-06-14T02:36:21;14.60;85.10
5210;DHT22;2624;48.048;11.706;2023-06-14T02:41:24;15.00;83.20
5210;DHT22;2624;48.048;11.706;2023-06-14T02:46:26;15.80;82.30
5210;DHT22;2624;48.048;11.706;2023-06-14T02:51:28;15.90;81.60
5210;DHT22;2624;48.048;11.706;2023-06-14T02:56:31;15.70;82.20
5210;DHT22;2624;48.048;11.706;2023-06-14T03:01:33;15.80;81.80
5210;DHT22;2624;48.048;11.706;2023-06-14T03:06:35;15.50;81.80
5210;DHT22;2624;48.048;11.706;2023-06-14T03:11:38;14.60;83.00
5210;DHT22;2624;48.048;11.706;2023-06-14T03:16:40;15.00;83.80
5210;DHT22;2624;48.048;11.706;2023-06-14T03:21:43;14.30;83.30
5210;DHT22;2624;48.048;11.706;2023-06-14T03:26:46;14.80;83.20
5210;DHT22;2624;48.048;11.706;2023-06-14T03:31:58;14.50;83.90
5210;DHT22;2624;48.048;11.706;2023-06-14T03:37:00;14.90;83.70
5210;DHT22;2624;48.048;11.706;2023-06-14T03:42:04;15.50;81.90
5210;DHT22;2624;48.048;11.706;2023-06-14T03:47:06;15.20;81.20
5210;DHT22;2624;48.048;11.706;2023-06-14T03:52:08;14.80;82.70
5210;DHT22;2624;48.048;11.706;2023-06-14T03:57:11;14.40;83.50
5210;DHT22;2624;48.048;11.706;2023-06-14T04:02:13;14.90;83.20
5210;DHT22;2624;48.048;11.706;2023-06-14T04:07:16;15.20;82.10
5210;DHT22;2624;48.048;11.706;2023-06-14T04:12:21;15.20;82.00
5210;DHT22;2624;48.048;11.706;2023-06-14T04:17:22;13.90;84.00
5210;DHT22;2624;48.048;11.706;2023-06-14T04:22:24;13.60;84.90
5210;DHT22;2624;48.048;11.706;2023-06-14T04:27:30;13.90;85.30
5210;DHT22;2624;48.048;11.706;2023-06-14T04:32:36;14.40;84.00
5210;DHT22;2624;48.048;11.706;2023-06-14T04:37:39;14.70;83.90
5210;DHT22;2624;48.048;11.706;2023-06-14T04:42:43;14.70;84.00
5210;DHT22;2624;48.048;11.706;2023-06-14T04:47:46;14.90;83.50
5210;DHT22;2624;48.048;11.706;2023-06-14T04:52:48;14.70;83.80
5210;DHT22;2624;48.048;11.706;2023-06-14T04:57:53;14.40;85.40
5210;DHT22;2624;48.048;11.706;2023-06-14T05:02:55;13.70;87.60
5210;DHT22;2624;48.048;11.706;2023-06-14T05:07:57;13.40;88.30
5210;DHT22;2624;48.048;11.706;2023-06-14T05:13:00;13.20;88.90
5210;DHT22;2624;48.048;11.706;2023-06-14T05:18:02;13.30;89.40
5210;DHT22;2624;48.048;11.706;2023-06-14T05:23:04;13.30;89.80
5210;DHT22;2624;48.048;11.706;2023-06-14T05:28:07;13.50;89.50
5210;DHT22;2624;48.048;11.706;2023-06-14T05:33:09;13.30;90.60
5210;DHT22;2624;48.048;11.706;2023-06-14T05:38:11;13.10;90.50
5210;DHT22;2624;48.048;11.706;2023-06-14T05:43:14;13.30;90.10
5210;DHT22;2624;48.048;11.706;2023-06-14T05:48:15;13.60;90.00
5210;DHT22;2624;48.048;11.706;2023-06-14T05:53:17;14.00;88.60
5210;DHT22;2624;48.048;11.706;2023-06-14T05:58:20;13.80;90.20
5210;DHT22;2624;48.048;11.706;2023-06-14T06:03:22;13.80;91.30
5210;DHT22;2624;48.048;11.706;2023-06-14T06:08:25;14.30;89.70
5210;DHT22;2624;48.048;11.706;2023-06-14T06:13:28;14.00;90.70
5210;DHT22;2624;48.048;11.706;2023-06-14T06:18:30;14.00;91.20
5210;DHT22;2624;48.048;11.706;2023-06-14T06:23:32;14.10;91.00
5210;DHT22;2624;48.048;11.706;2023-06-14T06:28:35;14.40;91.10
5210;DHT22;2624;48.048;11.706;2023-06-14T06:33:36;14.50;90.70
5210;DHT22;2624;48.048;11.706;2023-06-14T06:38:40;14.80;88.90
5210;DHT22;2624;48.048;11.706;2023-06-14T06:43:43;14.80;90.20
5210;DHT22;2624;48.048;11.706;2023-06-14T06:48:45;15.00;89.70
5210;DHT22;2624;48.048;11.706;2023-06-14T06:53:52;15.00;89.50
5210;DHT22;2624;48.048;11.706;2023-06-14T06:58:55;15.20;88.70
5210;DHT22;2624;48.048;11.706;2023-06-14T07:03:57;15.30;87.00
5210;DHT22;2624;48.048;11.706;2023-06-14T07:08:58;15.30;89.50
5210;DHT22;2624;48.048;11.706;2023-06-14T07:14:03;15.40;89.50
5210;DHT22;2624;48.048;11.706;2023-06-14T07:19:05;15.60;89.80
5210;DHT22;2624;48.048;11.706;2023-06-14T07:24:07;15.70;87.60
5210;DHT22;2624;48.048;11.706;2023-06-14T07:29:10;15.70;88.90
5210;DHT22;2624;48.048;11.706;2023-06-14T07:34:12;15.80;87.70
5210;DHT22;2624;48.048;11.706;2023-06-14T07:39:15;15.80;88.20
5210;DHT22;2624;48.048;11.706;2023-06-14T07:44:19;16.10;86.80
5210;DHT22;2624;48.048;11.706;2023-06-14T07:49:20;16.00;88.00
5210;DHT22;2624;48.048;11.706;2023-06-14T07:54:22;16.20;85.80
5210;DHT22;2624;48.048;11.706;2023-06-14T07:59:28;16.20;86.60
5210;DHT22;2624;48.048;11.706;2023-06-14T08:04:29;16.50;83.10
5210;DHT22;2624;48.048;11.706;2023-06-14T08:09:31;16.80;82.30
5210;DHT22;2624;48.048;11.706;2023-06-14T08:14:34;16.50;84.00
5210;DHT22;2624;48.048;11.706;2023-06-14T08:19:36;16.70;82.60
5210;DHT22;2624;48.048;11.706;2023-06-14T08:24:38;17.20;79.80
5210;DHT22;2624;48.048;11.706;2023-06-14T08:29:44;17.70;76.50
5210;DHT22;2624;48.048;11.706;2023-06-14T08:34:46;17.70;77.40
5210;DHT22;2624;48.048;11.706;2023-06-14T08:39:48;17.40;78.90
5210;DHT22;2624;48.048;11.706;2023-06-14T08:44:51;17.20;79.60
5210;DHT22;2624;48.048;11.706;2023-06-14T08:49:53;17.50;78.60
5210;DHT22;2624;48.048;11.706;2023-06-14T08:54:57;17.50;78.40
5210;DHT22;2624;48.048;11.706;2023-06-14T09:00:03;17.70;77.20
5210;DHT22;2624;48.048;11.706;2023-06-14T09:05:12;18.00;75.90
5210;DHT22;2624;48.048;11.706;2023-06-14T09:10:15;17.80;77.50
5210;DHT22;2624;48.048;11.706;2023-06-14T09:15:18;18.60;75.50
5210;DHT22;2624;48.048;11.706;2023-06-14T09:20:21;17.80;78.00
5210;DHT22;2624;48.048;11.706;2023-06-14T09:25:25;19.10;75.10
5210;DHT22;2624;48.048;11.706;2023-06-14T09:30:29;19.20;74.30
5210;DHT22;2624;48.048;11.706;2023-06-14T09:35:31;18.20;77.20
5210;DHT22;2624;48.048;11.706;2023-06-14T09:40:34;18.10;77.30
5210;DHT22;2624;48.048;11.706;2023-06-14T09:45:38;18.20;77.60
5210;DHT22;2624;48.048;11.706;2023-06-14T09:50:41;18.30;76.80
5210;DHT22;2624;48.048;11.706;2023-06-14T09:55:43;18.40;76.10
5210;DHT22;2624;48.048;11.706;2023-06-14T10:00:47;18.20;76.00
5210;DHT22;2624;48.048;11.706;2023-06-14T10:05:51;18.90;74.80
5210;DHT22;2624;48.048;11.706;2023-06-14T10:10:56;19.00;75.40
5210;DHT22;2624;48.048;11.706;2023-06-14T10:16:07;20.30;70.60
5210;DHT22;2624;48.048;11.706;2023-06-14T10:21:16;19.10;74.10
5210;DHT22;2624;48.048;11.706;2023-06-14T10:26:23;19.40;71.80
5210;DHT22;2624;48.048;11.706;2023-06-14T10:37:05;19.10;74.30
5210;DHT22;2624;48.048;11.706;2023-06-14T10:42:07;20.70;69.60
5210;DHT22;2624;48.048;11.706;2023-06-14T10:47:20;21.20;68.80
5210;DHT22;2624;48.048;11.706;2023-06-14T10:52:27;20.70;71.40
5210;DHT22;2624;48.048;11.706;2023-06-14T10:57:29;20.00;74.50
5210;DHT22;2624;48.048;11.706;2023-06-14T11:02:51;19.70;73.10
5210;DHT22;2624;48.048;11.706;2023-06-14T11:08:15;19.60;73.40
5210;DHT22;2624;48.048;11.706;2023-06-14T11:13:19;19.50;74.00
5210;DHT22;2624;48.048;11.706;2023-06-14T11:18:21;20.60;68.40
5210;DHT22;2624;48.048;11.706;2023-06-14T11:23:26;20.30;73.20
5210;DHT22;2624;48.048;11.706;2023-06-14T11:28:36;20.60;72.80
5210;DHT22;2624;48.048;11.706;2023-06-14T11:33:38;21.00;72.60
5210;DHT22;2624;48.048;11.706;2023-06-14T11:38:41;21.00;71.90
5210;DHT22;2624;48.048;11.706;2023-06-14T11:43:43;20.80;73.20
5210;DHT22;2624;48.048;11.706;2023-06-14T11:48:44;21.20;70.50
5210;DHT22;2624;48.048;11.706;2023-06-14T11:53:48;20.20;73.80
5210;DHT22;2624;48.048;11.706;2023-06-14T11:58:50;20.30;74.70
5210;DHT22;2624;48.048;11.706;2023-06-14T12:03:53;20.40;74.00
5210;DHT22;2624;48.048;11.706;2023-06-14T12:08:57;20.60;74.70
5210;DHT22;2624;48.048;11.706;2023-06-14T12:13:59;20.60;72.90
5210;DHT22;2624;48.048;11.706;2023-06-14T12:19:08;20.80;73.20
5210;DHT22;2624;48.048;11.706;2023-06-14T12:24:13;21.50;72.30
5210;DHT22;2624;48.048;11.706;2023-06-14T12:29:14;20.90;72.00
5210;DHT22;2624;48.048;11.706;2023-06-14T12:34:16;21.00;72.30
5210;DHT22;2624;48.048;11.706;2023-06-14T12:39:19;21.00;72.50
5210;DHT22;2624;48.048;11.706;2023-06-14T12:44:21;21.40;71.00
5210;DHT22;2624;48.048;11.706;2023-06-14T12:49:23;21.20;72.20
5210;DHT22;2624;48.048;11.706;2023-06-14T12:54:26;21.60;71.50
5210;DHT22;2624;48.048;11.706;2023-06-14T12:59:28;22.00;68.40
5210;DHT22;2624;48.048;11.706;2023-06-14T13:04:33;21.50;72.50
5210;DHT22;2624;48.048;11.706;2023-06-14T13:09:36;22.40;68.90
5210;DHT22;2624;48.048;11.706;2023-06-14T13:14:38;22.70;66.50
5210;DHT22;2624;48.048;11.706;2023-06-14T13:19:41;22.50;68.70
5210;DHT22;2624;48.048;11.706;2023-06-14T13:24:44;21.80;71.10
5210;DHT22;2624;48.048;11.706;2023-06-14T13:29:46;22.00;70.60
5210;DHT22;2624;48.048;11.706;2023-06-14T13:34:48;21.80;71.10
5210;DHT22;2624;48.048;11.706;2023-06-14T13:39:51;21.80;71.40
5210;DHT22;2624;48.048;11.706;2023-06-14T13:44:53;21.80;71.00
5210;DHT22;2624;48.048;11.706;2023-06-14T13:49:54;21.80;68.10
5210;DHT22;2624;48.048;11.706;2023-06-14T13:54:57;21.90;69.90
5210;DHT22;2624;48.048;11.706;2023-06-14T14:00:00;21.80;70.40
5210;DHT22;2624;48.048;11.706;2023-06-14T14:05:03;22.00;70.50
5210;DHT22;2624;48.048;11.706;2023-06-14T14:10:08;22.60;66.20
5210;DHT22;2624;48.048;11.706;2023-06-14T14:15:10;22.30;69.20
5210;DHT22;2624;48.048;11.706;2023-06-14T14:20:13;22.70;63.40
5210;DHT22;2624;48.048;11.706;2023-06-14T14:25:17;22.20;67.90
5210;DHT22;2624;48.048;11.706;2023-06-14T14:30:19;22.60;66.20
5210;DHT22;2624;48.048;11.706;2023-06-14T14:35:24;23.20;63.70
5210;DHT22;2624;48.048;11.706;2023-06-14T14:40:32;22.50;67.70
5210;DHT22;2624;48.048;11.706;2023-06-14T14:45:34;22.80;68.00
5210;DHT22;2624;48.048;11.706;2023-06-14T14:50:35;22.70;67.10
5210;DHT22;2624;48.048;11.706;2023-06-14T14:55:38;22.70;68.40
5210;DHT22;2624;48.048;11.706;2023-06-14T15:00:41;22.50;64.60
5210;DHT22;2624;48.048;11.706;2023-06-14T15:05:43;22.50;68.10
5210;DHT22;2624;48.048;11.706;2023-06-14T15:10:46;22.40;66.40
5210;DHT22;2624;48.048;11.706;2023-06-14T15:15:48;22.30;67.50
5210;DHT22;2624;48.048;11.706;2023-06-14T15:20:50;22.80;63.90
5210;DHT22;2624;48.048;11.706;2023-06-14T15:25:54;22.90;66.30
5210;DHT22;2624;48.048;11.706;2023-06-14T15:30:55;22.30;68.50
5210;DHT22;2624;48.048;11.706;2023-06-14T15:35:57;22.30;65.70
5210;DHT22;2624;48.048;11.706;2023-06-14T15:41:00;22.30;67.20
5210;DHT22;2624;48.048;11.706;2023-06-14T15:46:02;22.50;67.30
5210;DHT22;2624;48.048;11.706;2023-06-14T15:51:04;22.70;67.20
5210;DHT22;2624;48.048;11.706;2023-06-14T15:56:07;22.80;62.80
5210;DHT22;2624;48.048;11.706;2023-06-14T16:01:08;22.50;67.40
5210;DHT22;2624;48.048;11.706;2023-06-14T16:06:10;22.80;65.60
5210;DHT22;2624;48.048;11.706;2023-06-14T16:11:13;22.60;67.50
5210;DHT22;2624;48.048;11.706;2023-06-14T16:16:15;22.50;67.80
5210;DHT22;2624;48.048;11.706;2023-06-14T16:21:17;22.40;68.30
5210;DHT22;2624;48.048;11.706;2023-06-14T16:26:20;22.40;66.60
5210;DHT22;2624;48.048;11.706;2023-06-14T16:31:22;22.40;68.60
5210;DHT22;2624;48.048;11.706;2023-06-14T16:36:24;22.50;68.90
5210;DHT22;2624;48.048;11.706;2023-06-14T16:41:27;22.40;69.40
5210;DHT22;2624;48.048;11.706;2023-06-14T16:46:29;22.40;68.20
5210;DHT22;2624;48.048;11.706;2023-06-14T16:51:31;22.40;69.00
5210;DHT22;2624;48.048;11.706;2023-06-14T16:56:34;22.40;69.40
5210;DHT22;2624;48.048;11.706;2023-06-14T17:01:36;22.30;65.90
5210;DHT22;2624;48.048;11.706;2023-06-14T17:06:38;22.30;68.00
5210;DHT22;2624;48.048;11.706;2023-06-14T17:11:41;22.30;69.30
5210;DHT22;2624;48.048;11.706;2023-06-14T17:16:43;22.20;66.00
5210;DHT22;2624;48.048;11.706;2023-06-14T17:21:45;22.20;65.60
5210;DHT22;2624;48.048;11.706;2023-06-14T17:26:51;22.20;67.50
5210;DHT22;2624;48.048;11.706;2023-06-14T17:31:53;22.20;70.20
5210;DHT22;2624;48.048;11.706;2023-06-14T17:36:55;22.20;70.10
5210;DHT22;2624;48.048;11.706;2023-06-14T17:41:58;22.10;69.00
5210;DHT22;2624;48.048;11.706;2023-06-14T17:46:59;22.10;70.10
5210;DHT22;2624;48.048;11.706;2023-06-14T17:52:01;22.10;70.20
5210;DHT22;2624;48.048;11.706;2023-06-14T17:57:04;22.10;70.60
5210;DHT22;2624;48.048;11.706;2023-06-14T18:02:06;22.00;70.70
5210;DHT22;2624;48.048;11.706;2023-06-14T18:07:08;21.90;69.50
5210;DHT22;2624;48.048;11.706;2023-06-14T18:12:11;21.90;70.70
5210;DHT22;2624;48.048;11.706;2023-06-14T18:17:13;21.80;70.70
5210;DHT22;2624;48.048;11.706;2023-06-14T18:22:15;21.80;70.50
5210;DHT22;2624;48.048;11.706;2023-06-14T18:27:18;21.70;71.20
5210;DHT22;2624;48.048;11.706;2023-06-14T18:32:20;21.70;71.70
5210;DHT22;2624;48.048;11.706;2023-06-14T18:37:22;21.70;70.10
5210;DHT22;2624;48.048;11.706;2023-06-14T18:42:26;21.70;72.10
5210;DHT22;2624;48.048;11.706;2023-06-14T18:47:28;21.60;72.40
5210;DHT22;2624;48.048;11.706;2023-06-14T18:52:29;21.50;72.60
5210;DHT22;2624;48.048;11.706;2023-06-14T18:57:33;21.30;72.30
5210;DHT22;2624;48.048;11.706;2023-06-14T19:02:34;21.30;70.80
5210;DHT22;2624;48.048;11.706;2023-06-14T19:07:36;20.80;73.10
5210;DHT22;2624;48.048;11.706;2023-06-14T19:12:39;20.70;72.50
5210;DHT22;2624;48.048;11.706;2023-06-14T19:17:41;20.70;73.80
5210;DHT22;2624;48.048;11.706;2023-06-14T19:22:43;21.00;74.00
5210;DHT22;2624;48.048;11.706;2023-06-14T19:27:47;21.00;71.80
5210;DHT22;2624;48.048;11.706;2023-06-14T19:32:49;20.60;73.20
5210;DHT22;2624;48.048;11.706;2023-06-14T19:37:51;20.60;74.80
5210;DHT22;2624;48.048;11.706;2023-06-14T19:42:54;20.70;75.00
5210;DHT22;2624;48.048;11.706;2023-06-14T19:47:56;20.60;74.30
5210;DHT22;2624;48.048;11.706;2023-06-14T19:52:58;20.80;75.10
5210;DHT22;2624;48.048;11.706;2023-06-14T19:58:01;20.90;75.00
5210;DHT22;2624;48.048;11.706;2023-06-14T20:03:03;20.90;75.40
5210;DHT22;2624;48.048;11.706;2023-06-14T20:08:04;20.50;74.60
5210;DHT22;2624;48.048;11.706;2023-06-14T20:13:08;20.50;75.60
5210;DHT22;2624;48.048;11.706;2023-06-14T20:18:09;20.80;74.80
5210;DHT22;2624;48.048;11.706;2023-06-14T20:23:11;20.40;74.30
5210;DHT22;2624;48.048;11.706;2023-06-14T20:28:14;19.90;73.60
5210;DHT22;2624;48.048;11.706;2023-06-14T20:33:16;20.00;76.80
5210;DHT22;2624;48.048;11.706;2023-06-14T20:38:18;20.30;76.40
5210;DHT22;2624;48.048;11.706;2023-06-14T20:43:21;20.50;76.30
5210;DHT22;2624;48.048;11.706;2023-06-14T20:48:23;20.50;76.10
5210;DHT22;2624;48.048;11.706;2023-06-14T20:53:25;20.40;76.40
5210;DHT22;2624;48.048;11.706;2023-06-14T20:58:28;20.00;75.90
5210;DHT22;2624;48.048;11.706;2023-06-14T21:03:30;19.80;78.20
5210;DHT22;2624;48.048;11.706;2023-06-14T21:08:32;20.30;77.80
5210;DHT22;2624;48.048;11.706;2023-06-14T21:13:35;20.30;77.50
5210;DHT22;2624;48.048;11.706;2023-06-14T21:18:36;20.30;77.40
5210;DHT22;2624;48.048;11.706;2023-06-14T21:23:38;20.10;77.60
5210;DHT22;2624;48.048;11.706;2023-06-14T21:28:41;20.00;76.00
5210;DHT22;2624;48.048;11.706;2023-06-14T21:33:43;19.60;77.20
5210;DHT22;2624;48.048;11.706;2023-06-14T21:38:45;19.40;77.10
5210;DHT22;2624;48.048;11.706;2023-06-14T21:43:49;19.60;77.30
5210;DHT22;2624;48.048;11.706;2023-06-14T21:48:50;19.30;77.60
5210;DHT22;2624;48.048;11.706;2023-06-14T21:53:52;19.10;77.90
5210;DHT22;2624;48.048;11.706;2023-06-14T21:58:55;18.70;79.90
5210;DHT22;2624;48.048;11.706;2023-06-14T22:03:57;19.10;79.60
5210;DHT22;2624;48.048;11.706;2023-06-14T22:08:59;19.50;79.20
5210;DHT22;2624;48.048;11.706;2023-06-14T22:14:03;19.60;78.90
5210;DHT22;2624;48.048;11.706;2023-06-14T22:19:05;19.50;79.20
5210;DHT22;2624;48.048;11.706;2023-06-14T22:24:07;18.90;79.80
5210;DHT22;2624;48.048;11.706;2023-06-14T22:29:10;18.60;80.00
5210;DHT22;2624;48.048;11.706;2023-06-14T22:34:12;18.40;80.80
5210;DHT22;2624;48.048;11.706;2023-06-14T22:39:14;18.40;81.20
5210;DHT22;2624;48.048;11.706;2023-06-14T22:44:17;18.00;82.50
5210;DHT22;2624;48.048;11.706;2023-06-14T22:49:19;18.80;80.90
5210;DHT22;2624;48.048;11.706;2023-06-14T22:54:21;18.40;81.60
5210;DHT22;2624;48.048;11.706;2023-06-14T22:59:25;18.50;81.50
5210;DHT22;2624;48.048;11.706;2023-06-14T23:04:27;18.10;82.50
5210;DHT22;2624;48.048;11.706;2023-06-14T23:09:29;17.70;83.70
5210;DHT22;2624;48.048;11.706;2023-06-14T23:14:33;18.00;83.00
5210;DHT22;2624;48.048;11.706;2023-06-14T23:19:35;18.50;81.80
5210;DHT22;2624;48.048;11.706;2023-06-14T23:24:37;18.80;80.90
5210;DHT22;2624;48.048;11.706;2023-06-14T23:29:42;18.00;84.00
5210;DHT22;2624;48.048;11.706;2023-06-14T23:34:45;17.50;84.70
5210;DHT22;2624;48.048;11.706;2023-06-14T23:39:49;18.40;82.00
5210;DHT22;2624;48.048;11.706;2023-06-14T23:44:52;18.60;81.20
5210;DHT22;2624;48.048;11.706;2023-06-14T23:49:54;17.80;83.70
5210;DHT22;2624;48.048;11.706;2023-06-14T23:54:55;18.00;83.20
5210;DHT22;2624;48.048;11.706;2023-06-14T23:59:59;18.30;82.60
